createdAt,value
2022-08-03T00:00:42.986Z,0
2022-08-03T00:01:43.744Z,0
2022-08-03T00:02:44.525Z,0
2022-08-03T00:03:45.209Z,0
2022-08-03T00:04:45.956Z,0
2022-08-03T00:06:04.567Z,0
2022-08-03T00:06:47.744Z,0
2022-08-03T00:07:49.443Z,0
2022-08-03T00:08:49.925Z,0
2022-08-03T00:09:50.646Z,0
2022-08-03T00:10:51.501Z,0
2022-08-03T00:11:52.292Z,0
2022-08-03T00:12:52.998Z,0
2022-08-03T00:13:53.655Z,0
2022-08-03T00:14:54.301Z,0
2022-08-03T00:15:55.106Z,0
2022-08-03T00:16:56.657Z,0
2022-08-03T00:17:58.268Z,0
2022-08-03T00:19:00.622Z,0
2022-08-03T00:19:59.591Z,0
2022-08-03T00:21:01.338Z,0
2022-08-03T00:22:02.134Z,0
2022-08-03T00:23:02.921Z,0
2022-08-03T00:24:34.077Z,0
2022-08-03T00:25:34.799Z,0
2022-08-03T00:26:35.624Z,0
2022-08-03T00:27:37.330Z,0
2022-08-03T00:28:38.056Z,0
2022-08-03T00:29:59.729Z,0
2022-08-03T00:30:39.381Z,0
2022-08-03T00:31:52.554Z,0
2022-08-03T00:32:44.337Z,0
2022-08-03T00:33:57.925Z,0
2022-08-03T00:34:57.854Z,0
2022-08-03T00:35:50.964Z,0
2022-08-03T00:36:44.045Z,0
2022-08-03T00:37:45.769Z,0
2022-08-03T00:38:46.570Z,0
2022-08-03T00:39:47.247Z,0
2022-08-03T00:40:47.873Z,0
2022-08-03T00:41:48.712Z,0
2022-08-03T00:42:49.510Z,0
2022-08-03T00:43:50.309Z,0
2022-08-03T00:44:50.984Z,0
2022-08-03T00:45:51.651Z,0
2022-08-03T00:46:53.196Z,0
2022-08-03T00:47:54.783Z,0
2022-08-03T00:48:55.678Z,0
2022-08-03T00:49:57.193Z,0
2022-08-03T00:50:57.994Z,0
2022-08-03T00:51:58.704Z,0
2022-08-03T00:52:59.361Z,0
2022-08-03T00:54:00.010Z,0
2022-08-03T00:55:00.678Z,0
2022-08-03T00:56:01.313Z,0
2022-08-03T00:57:02.021Z,0
2022-08-03T00:58:03.728Z,0
2022-08-03T00:59:34.729Z,0
2022-08-03T01:00:35.464Z,0
2022-08-03T01:01:36.139Z,0
2022-08-03T01:02:36.823Z,0
2022-08-03T01:03:37.446Z,0
2022-08-03T01:04:38.725Z,0
2022-08-03T01:05:39.366Z,0
2022-08-03T01:06:40.013Z,0
2022-08-03T01:07:40.689Z,0
2022-08-03T01:08:42.078Z,0
2022-08-03T01:09:42.756Z,0
2022-08-03T01:10:43.421Z,0
2022-08-03T01:12:00.968Z,0
2022-08-03T01:12:44.784Z,0
2022-08-03T01:14:01.314Z,0
2022-08-03T01:14:47.098Z,0
2022-08-03T01:15:47.795Z,0
2022-08-03T01:16:48.482Z,0
2022-08-03T01:17:49.182Z,0
2022-08-03T01:18:50.606Z,0
2022-08-03T01:19:51.267Z,0
2022-08-03T01:20:51.975Z,0
2022-08-03T01:21:52.696Z,0
2022-08-03T01:22:54.156Z,0
2022-08-03T01:23:54.813Z,0
2022-08-03T01:24:55.487Z,0
2022-08-03T01:25:56.221Z,0
2022-08-03T01:26:57.005Z,0
2022-08-03T01:27:58.641Z,0
2022-08-03T01:28:59.375Z,0
2022-08-03T01:30:00.184Z,0
2022-08-03T01:31:00.853Z,0
2022-08-03T01:33:00.186Z,0
2022-08-03T01:33:33.491Z,0
2022-08-03T01:34:34.172Z,0
2022-08-03T01:35:38.243Z,0
2022-08-03T01:36:35.588Z,0
2022-08-03T01:37:38.769Z,0
2022-08-03T01:38:38.661Z,0
2022-08-03T01:39:39.322Z,0
2022-08-03T01:40:40.020Z,0
2022-08-03T01:41:40.725Z,0
2022-08-03T01:42:41.731Z,0
2022-08-03T01:44:28.057Z,0
2022-08-03T01:44:43.109Z,0
2022-08-03T01:45:43.843Z,0
2022-08-03T01:46:47.592Z,0
2022-08-03T01:47:45.919Z,0
2022-08-03T01:48:47.629Z,0
2022-08-03T01:49:48.392Z,0
2022-08-03T01:50:49.001Z,0
2022-08-03T01:51:58.401Z,0
2022-08-03T01:52:50.694Z,0
2022-08-03T01:53:51.142Z,0
2022-08-03T01:54:51.849Z,0
2022-08-03T01:55:52.523Z,0
2022-08-03T01:56:53.244Z,0
2022-08-03T01:58:05.300Z,0
2022-08-03T01:58:55.666Z,0
2022-08-03T01:59:56.353Z,0
2022-08-03T02:00:57.219Z,0
2022-08-03T02:02:15.650Z,0
2022-08-03T02:02:58.550Z,0
2022-08-03T02:04:00.606Z,0
2022-08-03T02:04:59.964Z,0
2022-08-03T02:07:00.507Z,0
2022-08-03T02:07:03.331Z,0
2022-08-03T02:08:33.754Z,0
2022-08-03T02:09:34.470Z,0
2022-08-03T02:10:36.005Z,0
2022-08-03T02:11:35.823Z,0
2022-08-03T02:12:36.501Z,0
2022-08-03T02:13:37.186Z,0
2022-08-03T02:14:37.915Z,0
2022-08-03T02:15:38.558Z,0
2022-08-03T02:16:39.263Z,0
2022-08-03T02:17:40.616Z,0
2022-08-03T02:18:42.289Z,0
2022-08-03T02:19:43.063Z,0
2022-08-03T02:20:44.599Z,0
2022-08-03T02:21:55.935Z,0
2022-08-03T02:22:46.031Z,0
2022-08-03T02:23:46.767Z,0
2022-08-03T02:24:50.994Z,0
2022-08-03T02:25:48.193Z,0
2022-08-03T02:26:48.911Z,0
2022-08-03T02:27:49.619Z,0
2022-08-03T02:28:51.271Z,0
2022-08-03T02:29:52.039Z,0
2022-08-03T02:30:53.998Z,0
2022-08-03T02:31:53.443Z,0
2022-08-03T02:32:54.168Z,0
2022-08-03T02:33:54.885Z,0
2022-08-03T02:34:55.607Z,0
2022-08-03T02:35:56.253Z,0
2022-08-03T02:36:57.006Z,0
2022-08-03T02:37:57.715Z,0
2022-08-03T02:38:59.279Z,0
2022-08-03T02:40:00.017Z,0
2022-08-03T02:41:00.696Z,0
2022-08-03T02:42:01.866Z,0
2022-08-03T02:43:39.244Z,0
2022-08-03T02:44:33.601Z,0
2022-08-03T02:45:34.368Z,0
2022-08-03T02:46:35.073Z,0
2022-08-03T02:47:53.277Z,0
2022-08-03T02:48:38.275Z,0
2022-08-03T02:49:51.374Z,0
2022-08-03T02:50:39.739Z,0
2022-08-03T02:51:40.404Z,0
2022-08-03T02:52:41.136Z,0
2022-08-03T02:53:41.983Z,0
2022-08-03T02:54:42.691Z,0
2022-08-03T02:55:45.822Z,0
2022-08-03T02:56:44.125Z,0
2022-08-03T02:57:44.836Z,0
2022-08-03T02:58:46.288Z,0
2022-08-03T02:59:46.988Z,0
2022-08-03T03:00:47.769Z,0
2022-08-03T03:01:48.430Z,0
2022-08-03T03:02:49.194Z,0
2022-08-03T03:03:49.939Z,0
2022-08-03T03:05:53.197Z,0
2022-08-03T03:05:55.517Z,0
2022-08-03T03:06:52.072Z,0
2022-08-03T03:07:53.253Z,0
2022-08-03T03:08:59.295Z,0
2022-08-03T03:09:55.004Z,0
2022-08-03T03:10:55.890Z,0
2022-08-03T03:11:56.472Z,0
2022-08-03T03:12:57.249Z,0
2022-08-03T03:13:58.528Z,0
2022-08-03T03:14:59.767Z,0
2022-08-03T03:16:00.505Z,0
2022-08-03T03:17:01.669Z,0
2022-08-03T03:18:33.513Z,0
2022-08-03T03:19:35.168Z,0
2022-08-03T03:20:35.862Z,0
2022-08-03T03:21:36.567Z,0
2022-08-03T03:22:38.162Z,0
2022-08-03T03:23:38.873Z,0
2022-08-03T03:24:39.575Z,0
2022-08-03T03:25:40.256Z,0
2022-08-03T03:26:42.481Z,0
2022-08-03T03:27:41.922Z,0
2022-08-03T03:28:42.623Z,0
2022-08-03T03:29:44.221Z,0
2022-08-03T03:30:44.884Z,0
2022-08-03T03:31:45.588Z,0
2022-08-03T03:32:46.304Z,0
2022-08-03T03:33:47.039Z,0
2022-08-03T03:34:47.748Z,0
2022-08-03T03:35:48.453Z,0
2022-08-03T03:36:49.179Z,0
2022-08-03T03:37:50.023Z,0
2022-08-03T03:38:51.816Z,0
2022-08-03T03:39:52.608Z,0
2022-08-03T03:40:54.214Z,0
2022-08-03T03:41:54.934Z,0
2022-08-03T03:42:55.577Z,0
2022-08-03T03:43:56.371Z,0
2022-08-03T03:44:57.825Z,0
2022-08-03T03:45:58.642Z,0
2022-08-03T03:46:59.410Z,0
2022-08-03T03:48:00.136Z,0
2022-08-03T03:49:01.919Z,0
2022-08-03T03:50:33.105Z,4
2022-08-03T03:51:33.919Z,0
2022-08-03T03:52:35.331Z,0
2022-08-03T03:53:35.991Z,4
2022-08-03T03:54:36.764Z,0
2022-08-03T03:55:37.588Z,4
2022-08-03T03:56:38.402Z,4
2022-08-03T03:57:39.125Z,4
2022-08-03T03:58:39.781Z,4
2022-08-03T03:59:41.237Z,8
2022-08-03T04:00:42.259Z,8
2022-08-03T04:01:42.913Z,8
2022-08-03T04:02:43.740Z,8
2022-08-03T04:03:44.456Z,12
2022-08-03T04:04:45.134Z,12
2022-08-03T04:05:46.079Z,16
2022-08-03T04:06:46.824Z,16
2022-08-03T04:07:47.625Z,20
2022-08-03T04:08:49.388Z,24
2022-08-03T04:09:49.747Z,28
2022-08-03T04:10:50.607Z,28
2022-08-03T04:11:51.444Z,32
2022-08-03T04:12:52.288Z,36
2022-08-03T04:13:52.985Z,40
2022-08-03T04:14:53.703Z,44
2022-08-03T04:15:54.510Z,48
2022-08-03T04:16:55.314Z,52
2022-08-03T04:17:56.864Z,56
2022-08-03T04:18:57.586Z,60
2022-08-03T04:19:59.159Z,68
2022-08-03T04:21:00.003Z,72
2022-08-03T04:22:32.327Z,80
2022-08-03T04:23:33.107Z,84
2022-08-03T04:24:33.801Z,88
2022-08-03T04:25:34.566Z,96
2022-08-03T04:26:35.384Z,100
2022-08-03T04:27:36.252Z,104
2022-08-03T04:28:37.106Z,112
2022-08-03T04:29:38.619Z,116
2022-08-03T04:30:39.023Z,124
2022-08-03T04:31:39.861Z,132
2022-08-03T04:32:45.467Z,136
2022-08-03T04:33:42.398Z,140
2022-08-03T04:34:43.060Z,144
2022-08-03T04:35:58.554Z,152
2022-08-03T04:36:44.611Z,156
2022-08-03T04:37:45.464Z,160
2022-08-03T04:38:46.301Z,168
2022-08-03T04:39:47.676Z,172
2022-08-03T04:40:48.404Z,180
2022-08-03T04:42:08.297Z,184
2022-08-03T04:42:50.836Z,192
2022-08-03T04:43:51.696Z,200
2022-08-03T04:44:52.398Z,204
2022-08-03T04:45:53.091Z,208
2022-08-03T04:46:53.854Z,216
2022-08-03T04:47:55.335Z,220
2022-08-03T04:48:56.184Z,228
2022-08-03T04:49:57.755Z,232
2022-08-03T04:50:59.157Z,240
2022-08-03T04:51:59.897Z,248
2022-08-03T04:53:31.232Z,256
2022-08-03T04:54:32.051Z,264
2022-08-03T04:55:32.797Z,272
2022-08-03T04:56:33.525Z,276
2022-08-03T04:57:35.252Z,284
2022-08-03T04:58:36.091Z,288
2022-08-03T04:59:39.147Z,296
2022-08-03T05:00:38.568Z,300
2022-08-03T05:01:39.346Z,308
2022-08-03T05:02:40.047Z,312
2022-08-03T05:03:40.854Z,316
2022-08-03T05:04:41.944Z,324
2022-08-03T05:05:50.261Z,332
2022-08-03T05:06:48.407Z,336
2022-08-03T05:07:44.150Z,348
2022-08-03T05:08:46.834Z,352
2022-08-03T05:09:50.402Z,356
2022-08-03T05:10:47.117Z,364
2022-08-03T05:11:47.804Z,368
2022-08-03T05:12:48.572Z,372
2022-08-03T05:13:49.424Z,380
2022-08-03T05:14:50.295Z,384
2022-08-03T05:15:51.686Z,388
2022-08-03T05:16:52.411Z,400
2022-08-03T05:17:53.189Z,404
2022-08-03T05:18:54.003Z,408
2022-08-03T05:19:55.402Z,412
2022-08-03T05:20:56.136Z,420
2022-08-03T05:21:56.868Z,428
2022-08-03T05:22:58.217Z,432
2022-08-03T05:23:59.029Z,440
2022-08-03T05:25:00.323Z,452
2022-08-03T05:26:31.484Z,456
2022-08-03T05:27:32.130Z,460
2022-08-03T05:28:32.871Z,464
2022-08-03T05:29:33.686Z,472
2022-08-03T05:30:35.270Z,476
2022-08-03T05:31:35.944Z,484
2022-08-03T05:32:36.660Z,488
2022-08-03T05:33:37.406Z,488
2022-08-03T05:34:38.221Z,496
2022-08-03T05:36:00.984Z,500
2022-08-03T05:36:39.807Z,508
2022-08-03T05:37:40.498Z,512
2022-08-03T05:38:41.328Z,516
2022-08-03T05:39:42.849Z,520
2022-08-03T05:40:46.980Z,528
2022-08-03T05:41:44.507Z,532
2022-08-03T05:42:45.804Z,532
2022-08-03T05:43:46.590Z,540
2022-08-03T05:44:47.440Z,540
2022-08-03T05:45:48.279Z,548
2022-08-03T05:46:48.991Z,552
2022-08-03T05:47:50.701Z,556
2022-08-03T05:48:51.456Z,560
2022-08-03T05:49:52.873Z,564
2022-08-03T05:50:53.739Z,568
2022-08-03T05:52:00.388Z,576
2022-08-03T05:52:56.190Z,576
2022-08-03T05:53:57.043Z,580
2022-08-03T05:54:57.927Z,584
2022-08-03T05:56:03.618Z,588
2022-08-03T05:56:59.967Z,592
2022-08-03T05:58:31.027Z,596
2022-08-03T05:59:38.145Z,600
2022-08-03T06:00:33.313Z,604
2022-08-03T06:01:34.284Z,604
2022-08-03T06:02:34.983Z,612
2022-08-03T06:03:35.700Z,612
2022-08-03T06:04:36.468Z,612
2022-08-03T06:05:37.281Z,616
2022-08-03T06:06:38.167Z,620
2022-08-03T06:07:38.956Z,620
2022-08-03T06:08:39.657Z,620
2022-08-03T06:10:34.126Z,624
2022-08-03T06:10:42.075Z,628
2022-08-03T06:11:42.942Z,632
2022-08-03T06:12:43.650Z,632
2022-08-03T06:13:44.412Z,636
2022-08-03T06:14:45.138Z,636
2022-08-03T06:15:46.859Z,636
2022-08-03T06:16:47.741Z,636
2022-08-03T06:17:48.441Z,644
2022-08-03T06:18:49.134Z,644
2022-08-03T06:19:49.832Z,644
2022-08-03T06:20:51.261Z,644
2022-08-03T06:21:52.143Z,648
2022-08-03T06:23:01.038Z,648
2022-08-03T06:23:55.641Z,652
2022-08-03T06:24:55.269Z,652
2022-08-03T06:25:56.100Z,652
2022-08-03T06:26:57.004Z,652
2022-08-03T06:27:58.767Z,656
2022-08-03T06:29:30.172Z,656
2022-08-03T06:30:31.880Z,660
2022-08-03T06:31:33.809Z,660
2022-08-03T06:32:33.628Z,660
2022-08-03T06:34:30.443Z,660
2022-08-03T06:34:35.763Z,664
2022-08-03T06:35:35.801Z,664
2022-08-03T06:36:36.639Z,668
2022-08-03T06:37:37.461Z,664
2022-08-03T06:38:38.192Z,668
2022-08-03T06:39:38.916Z,664
2022-08-03T06:40:40.218Z,668
2022-08-03T06:41:44.803Z,668
2022-08-03T06:42:41.696Z,668
2022-08-03T06:44:03.532Z,672
2022-08-03T06:44:43.104Z,672
2022-08-03T06:45:43.849Z,668
2022-08-03T06:46:44.655Z,672
2022-08-03T06:47:45.561Z,672
2022-08-03T06:48:46.855Z,672
2022-08-03T06:50:12.257Z,672
2022-08-03T06:50:49.178Z,672
2022-08-03T06:52:04.539Z,676
2022-08-03T06:52:50.832Z,676
2022-08-03T06:53:51.596Z,676
2022-08-03T06:54:52.316Z,672
2022-08-03T06:55:54.637Z,676
2022-08-03T06:56:53.903Z,676
2022-08-03T06:57:54.790Z,676
2022-08-03T06:58:55.554Z,680
2022-08-03T07:00:08.499Z,676
2022-08-03T07:00:57.726Z,680
2022-08-03T07:01:58.475Z,680
2022-08-03T07:03:29.920Z,680
2022-08-03T07:04:30.643Z,680
2022-08-03T07:05:31.353Z,680
2022-08-03T07:06:32.084Z,680
2022-08-03T07:07:32.911Z,680
2022-08-03T07:08:34.536Z,680
2022-08-03T07:09:34.496Z,684
2022-08-03T07:10:35.858Z,680
2022-08-03T07:11:36.587Z,680
2022-08-03T07:12:37.419Z,680
2022-08-03T07:13:38.266Z,684
2022-08-03T07:14:38.974Z,680
2022-08-03T07:15:56.186Z,680
2022-08-03T07:16:40.501Z,684
2022-08-03T07:17:41.322Z,680
2022-08-03T07:18:42.949Z,680
2022-08-03T07:19:43.731Z,680
2022-08-03T07:20:45.363Z,684
2022-08-03T07:21:46.095Z,680
2022-08-03T07:22:47.867Z,680
2022-08-03T07:23:48.697Z,680
2022-08-03T07:24:49.482Z,680
2022-08-03T07:25:50.222Z,680
2022-08-03T07:26:50.933Z,680
2022-08-03T07:27:51.915Z,680
2022-08-03T07:28:52.612Z,680
2022-08-03T07:29:53.374Z,680
2022-08-03T07:30:54.847Z,680
2022-08-03T07:31:55.588Z,676
2022-08-03T07:32:56.444Z,676
2022-08-03T07:33:57.338Z,680
2022-08-03T07:35:29.395Z,680
2022-08-03T07:36:30.114Z,680
2022-08-03T07:37:30.827Z,680
2022-08-03T07:38:31.713Z,680
2022-08-03T07:39:32.533Z,672
2022-08-03T07:40:33.338Z,676
2022-08-03T07:41:34.809Z,676
2022-08-03T07:42:35.482Z,676
2022-08-03T07:43:36.273Z,676
2022-08-03T07:44:37.122Z,676
2022-08-03T07:45:37.920Z,676
2022-08-03T07:46:38.642Z,676
2022-08-03T07:47:39.323Z,676
2022-08-03T07:48:40.915Z,676
2022-08-03T07:49:42.098Z,676
2022-08-03T07:50:43.411Z,676
2022-08-03T07:51:44.147Z,676
2022-08-03T07:52:45.846Z,676
2022-08-03T07:53:48.036Z,676
2022-08-03T07:54:47.513Z,676
2022-08-03T07:55:48.290Z,676
2022-08-03T07:56:48.981Z,676
2022-08-03T07:57:50.338Z,676
2022-08-03T07:58:51.159Z,676
2022-08-03T07:59:59.574Z,676
2022-08-03T08:00:53.612Z,676
2022-08-03T08:01:54.165Z,676
2022-08-03T08:02:54.933Z,676
2022-08-03T08:03:55.748Z,672
2022-08-03T08:04:56.671Z,672
2022-08-03T08:05:57.449Z,672
2022-08-03T08:07:28.911Z,672
2022-08-03T08:08:29.626Z,672
2022-08-03T08:09:30.428Z,672
2022-08-03T08:10:31.274Z,672
2022-08-03T08:11:34.869Z,672
2022-08-03T08:12:33.536Z,672
2022-08-03T08:13:34.255Z,676
2022-08-03T08:14:35.113Z,672
2022-08-03T08:15:35.983Z,672
2022-08-03T08:16:37.312Z,672
2022-08-03T08:17:38.055Z,676
2022-08-03T08:18:38.832Z,676
2022-08-03T08:19:42.765Z,672
2022-08-03T08:20:41.391Z,672
2022-08-03T08:21:53.174Z,672
2022-08-03T08:22:43.545Z,672
2022-08-03T08:23:48.635Z,668
2022-08-03T08:24:46.097Z,672
2022-08-03T08:25:46.978Z,672
2022-08-03T08:26:48.387Z,672
2022-08-03T08:28:29.707Z,668
2022-08-03T08:28:49.947Z,672
2022-08-03T08:29:55.183Z,668
2022-08-03T08:30:52.429Z,668
2022-08-03T08:31:53.180Z,668
2022-08-03T08:32:54.738Z,668
2022-08-03T08:34:04.414Z,668
2022-08-03T08:34:56.312Z,668
2022-08-03T08:35:57.286Z,668
2022-08-03T08:37:28.633Z,668
2022-08-03T08:38:29.366Z,668
2022-08-03T08:39:30.166Z,668
2022-08-03T08:40:30.975Z,668
2022-08-03T08:41:32.468Z,668
2022-08-03T08:42:33.075Z,664
2022-08-03T08:43:33.821Z,668
2022-08-03T08:44:34.599Z,668
2022-08-03T08:45:35.501Z,668
2022-08-03T08:46:36.950Z,664
2022-08-03T08:47:50.920Z,664
2022-08-03T08:48:38.489Z,664
2022-08-03T08:49:39.428Z,668
2022-08-03T08:50:40.801Z,668
2022-08-03T08:51:50.547Z,668
2022-08-03T08:52:43.155Z,668
2022-08-03T08:53:43.922Z,664
2022-08-03T08:54:44.668Z,664
2022-08-03T08:55:59.571Z,668
2022-08-03T08:56:46.204Z,668
2022-08-03T08:57:46.908Z,668
2022-08-03T08:58:47.643Z,668
2022-08-03T08:59:49.738Z,668
2022-08-03T09:00:49.227Z,668
2022-08-03T09:01:50.886Z,604
2022-08-03T09:02:51.735Z,412
2022-08-03T09:03:52.483Z,412
2022-08-03T09:04:53.293Z,412
2022-08-03T09:05:56.140Z,408
2022-08-03T09:07:17.980Z,412
2022-08-03T09:07:55.592Z,412
2022-08-03T09:08:56.309Z,408
2022-08-03T09:10:11.397Z,408
2022-08-03T09:12:00.885Z,408
2022-08-03T09:12:42.050Z,408
2022-08-03T09:13:31.026Z,408
2022-08-03T09:14:36.562Z,408
2022-08-03T09:15:32.561Z,404
2022-08-03T09:16:33.419Z,404
2022-08-03T09:17:34.859Z,404
2022-08-03T09:18:35.682Z,404
2022-08-03T09:19:36.418Z,404
2022-08-03T09:20:37.805Z,404
2022-08-03T09:21:39.435Z,404
2022-08-03T09:22:40.303Z,404
2022-08-03T09:24:00.485Z,404
2022-08-03T09:24:43.416Z,400
2022-08-03T09:25:42.742Z,404
2022-08-03T09:26:43.530Z,404
2022-08-03T09:27:44.386Z,400
2022-08-03T09:29:02.042Z,400
2022-08-03T09:29:45.798Z,396
2022-08-03T09:30:46.548Z,396
2022-08-03T09:31:47.965Z,400
2022-08-03T09:32:48.847Z,396
2022-08-03T09:33:50.268Z,396
2022-08-03T09:34:54.192Z,396
2022-08-03T09:35:54.522Z,392
2022-08-03T09:36:52.654Z,396
2022-08-03T09:38:12.068Z,392
2022-08-03T09:38:54.341Z,392
2022-08-03T09:39:55.231Z,396
2022-08-03T09:40:59.472Z,392
2022-08-03T09:42:28.270Z,392
2022-08-03T09:43:29.117Z,392
2022-08-03T09:44:29.848Z,392
2022-08-03T09:45:30.593Z,392
2022-08-03T09:46:31.443Z,392
2022-08-03T09:47:32.265Z,388
2022-08-03T09:48:33.125Z,388
2022-08-03T09:49:34.489Z,392
2022-08-03T09:50:35.148Z,392
2022-08-03T09:52:38.476Z,388
2022-08-03T09:52:49.799Z,388
2022-08-03T09:53:38.600Z,392
2022-08-03T09:54:39.289Z,388
2022-08-03T09:56:34.556Z,392
2022-08-03T09:56:41.711Z,388
2022-08-03T09:57:43.445Z,388
2022-08-03T09:58:44.285Z,384
2022-08-03T09:59:45.116Z,388
2022-08-03T10:00:45.998Z,384
2022-08-03T10:01:47.523Z,388
2022-08-03T10:02:48.254Z,388
2022-08-03T10:04:03.303Z,388
2022-08-03T10:04:49.915Z,388
2022-08-03T10:05:50.647Z,384
2022-08-03T10:06:51.501Z,388
2022-08-03T10:07:52.248Z,388
2022-08-03T10:08:53.171Z,388
2022-08-03T10:09:53.904Z,384
2022-08-03T10:10:54.616Z,388
2022-08-03T10:11:55.903Z,384
2022-08-03T10:13:27.885Z,384
2022-08-03T10:14:28.418Z,384
2022-08-03T10:16:23.486Z,384
2022-08-03T10:16:29.919Z,384
2022-08-03T10:17:30.769Z,384
2022-08-03T10:18:31.617Z,384
2022-08-03T10:19:33.450Z,388
2022-08-03T10:20:34.212Z,388
2022-08-03T10:21:35.013Z,384
2022-08-03T10:22:36.268Z,388
2022-08-03T10:23:37.041Z,388
2022-08-03T10:24:37.902Z,384
2022-08-03T10:25:38.612Z,384
2022-08-03T10:26:39.357Z,388
2022-08-03T10:27:40.224Z,388
2022-08-03T10:28:44.999Z,388
2022-08-03T10:29:42.102Z,384
2022-08-03T10:30:42.824Z,388
2022-08-03T10:31:54.761Z,388
2022-08-03T10:32:45.289Z,388
2022-08-03T10:33:49.710Z,388
2022-08-03T10:34:46.832Z,384
2022-08-03T10:35:47.571Z,388
2022-08-03T10:36:48.356Z,388
2022-08-03T10:37:56.504Z,388
2022-08-03T10:38:50.059Z,392
2022-08-03T10:39:50.911Z,388
2022-08-03T10:40:55.810Z,388
2022-08-03T10:41:53.448Z,392
2022-08-03T10:42:54.298Z,388
2022-08-03T10:43:55.294Z,388
2022-08-03T10:44:56.481Z,388
2022-08-03T10:46:27.663Z,388
2022-08-03T10:47:28.891Z,392
2022-08-03T10:48:29.710Z,388
2022-08-03T10:49:34.501Z,388
2022-08-03T10:50:32.342Z,388
2022-08-03T10:51:33.082Z,388
2022-08-03T10:52:39.532Z,388
2022-08-03T10:53:35.632Z,392
2022-08-03T10:54:36.433Z,392
2022-08-03T10:55:37.241Z,392
2022-08-03T10:56:47.989Z,392
2022-08-03T10:57:38.730Z,388
2022-08-03T10:58:53.460Z,392
2022-08-03T10:59:40.487Z,392
2022-08-03T11:00:41.461Z,392
2022-08-03T11:02:00.132Z,396
2022-08-03T11:02:43.833Z,396
2022-08-03T11:03:44.624Z,396
2022-08-03T11:04:45.448Z,396
2022-08-03T11:05:46.304Z,396
2022-08-03T11:06:47.019Z,396
2022-08-03T11:07:47.692Z,396
2022-08-03T11:08:48.550Z,396
2022-08-03T11:09:49.370Z,396
2022-08-03T11:10:50.220Z,396
2022-08-03T11:11:50.988Z,396
2022-08-03T11:12:52.241Z,396
2022-08-03T11:13:53.086Z,396
2022-08-03T11:14:53.963Z,400
2022-08-03T11:15:59.991Z,400
2022-08-03T11:16:55.404Z,400
2022-08-03T11:18:27.250Z,400
2022-08-03T11:19:28.203Z,396
2022-08-03T11:20:29.831Z,396
2022-08-03T11:21:30.615Z,396
2022-08-03T11:22:31.915Z,396
2022-08-03T11:24:02.477Z,396
2022-08-03T11:24:33.583Z,396
2022-08-03T11:25:54.703Z,396
2022-08-03T11:26:35.226Z,396
2022-08-03T11:27:35.888Z,396
2022-08-03T11:28:36.645Z,396
2022-08-03T11:29:37.464Z,396
2022-08-03T11:30:38.257Z,392
2022-08-03T11:31:49.713Z,392
2022-08-03T11:32:40.407Z,392
2022-08-03T11:33:41.153Z,396
2022-08-03T11:34:42.149Z,392
2022-08-03T11:35:42.983Z,396
2022-08-03T11:36:43.823Z,400
2022-08-03T11:38:03.494Z,396
2022-08-03T11:38:46.236Z,400
2022-08-03T11:39:47.020Z,400
2022-08-03T11:40:47.831Z,400
2022-08-03T11:41:48.660Z,400
2022-08-03T11:42:50.250Z,404
2022-08-03T11:43:50.947Z,408
2022-08-03T11:44:51.768Z,416
2022-08-03T11:45:52.576Z,416
2022-08-03T11:46:53.346Z,420
2022-08-03T11:47:53.989Z,424
2022-08-03T11:48:55.460Z,424
2022-08-03T11:50:26.635Z,432
2022-08-03T11:51:27.533Z,436
2022-08-03T11:52:29.096Z,440
2022-08-03T11:53:29.597Z,444
2022-08-03T11:54:30.449Z,452
2022-08-03T11:55:32.139Z,452
2022-08-03T11:56:32.000Z,456
2022-08-03T11:58:58.057Z,464
2022-08-03T11:59:16.812Z,456
2022-08-03T11:59:35.556Z,468
2022-08-03T12:00:35.650Z,468
2022-08-03T12:01:36.487Z,480
2022-08-03T12:02:37.967Z,484
2022-08-03T12:03:38.634Z,484
2022-08-03T12:04:39.364Z,496
2022-08-03T12:05:40.211Z,496
2022-08-03T12:06:47.010Z,500
2022-08-03T12:08:03.579Z,504
2022-08-03T12:08:42.648Z,512
2022-08-03T12:09:43.397Z,520
2022-08-03T12:10:44.231Z,524
2022-08-03T12:11:51.634Z,528
2022-08-03T12:12:46.805Z,536
2022-08-03T12:14:43.733Z,544
2022-08-03T12:14:49.994Z,548
2022-08-03T12:15:48.709Z,556
2022-08-03T12:16:49.546Z,560
2022-08-03T12:17:53.684Z,564
2022-08-03T12:18:51.043Z,568
2022-08-03T12:19:51.794Z,572
2022-08-03T12:20:53.355Z,580
2022-08-03T12:21:56.900Z,580
2022-08-03T12:22:56.531Z,592
2022-08-03T12:24:27.524Z,592
2022-08-03T12:25:39.474Z,596
2022-08-03T12:26:29.172Z,604
2022-08-03T12:27:29.957Z,608
2022-08-03T12:28:37.902Z,612
2022-08-03T12:29:31.992Z,620
2022-08-03T12:30:32.900Z,624
2022-08-03T12:31:34.486Z,628
2022-08-03T12:32:35.913Z,632
2022-08-03T12:33:36.645Z,640
2022-08-03T12:34:37.963Z,640
2022-08-03T12:35:38.769Z,644
2022-08-03T12:36:39.566Z,652
2022-08-03T12:37:40.353Z,656
2022-08-03T12:38:41.129Z,660
2022-08-03T12:40:02.586Z,668
2022-08-03T12:40:42.790Z,680
2022-08-03T12:41:43.593Z,684
2022-08-03T12:42:44.924Z,692
2022-08-03T12:43:45.684Z,696
2022-08-03T12:44:46.415Z,704
2022-08-03T12:45:47.231Z,708
2022-08-03T12:46:48.245Z,724
2022-08-03T12:47:48.745Z,732
2022-08-03T12:48:49.484Z,748
2022-08-03T12:49:50.719Z,752
2022-08-03T12:50:53.653Z,764
2022-08-03T12:51:53.223Z,772
2022-08-03T12:52:54.957Z,792
2022-08-03T12:54:26.029Z,796
2022-08-03T12:55:26.824Z,804
2022-08-03T12:56:27.736Z,812
2022-08-03T12:57:28.517Z,816
2022-08-03T12:58:29.263Z,828
2022-08-03T12:59:32.529Z,836
2022-08-03T13:00:30.770Z,844
2022-08-03T13:01:31.567Z,856
2022-08-03T13:02:32.411Z,864
2022-08-03T13:03:41.900Z,864
2022-08-03T13:04:34.507Z,876
2022-08-03T13:05:35.260Z,884
2022-08-03T13:06:36.061Z,892
2022-08-03T13:07:36.870Z,904
2022-08-03T13:08:37.585Z,912
2022-08-03T13:09:38.390Z,920
2022-08-03T13:10:39.157Z,924
2022-08-03T13:11:57.966Z,932
2022-08-03T13:12:40.722Z,936
2022-08-03T13:13:42.284Z,956
2022-08-03T13:14:43.021Z,964
2022-08-03T13:15:48.026Z,964
2022-08-03T13:16:44.637Z,976
2022-08-03T13:17:45.457Z,984
2022-08-03T13:18:46.795Z,992
2022-08-03T13:19:47.529Z,1004
2022-08-03T13:20:48.321Z,1016
2022-08-03T13:22:03.601Z,1020
2022-08-03T13:22:50.469Z,1032
2022-08-03T13:23:52.006Z,1044
2022-08-03T13:24:52.750Z,1052
2022-08-03T13:25:55.751Z,1060
2022-08-03T13:26:54.708Z,1076
2022-08-03T13:28:25.845Z,1088
2022-08-03T13:29:26.547Z,1096
2022-08-03T13:30:30.077Z,1108
2022-08-03T13:31:28.146Z,1116
2022-08-03T13:32:28.936Z,1124
2022-08-03T13:33:30.440Z,1136
2022-08-03T13:34:31.141Z,1148
2022-08-03T13:35:31.938Z,1156
2022-08-03T13:36:52.902Z,1168
2022-08-03T13:37:33.576Z,1180
2022-08-03T13:38:34.451Z,1188
2022-08-03T13:39:35.123Z,1200
2022-08-03T13:40:40.043Z,1216
2022-08-03T13:41:36.701Z,1228
2022-08-03T13:42:38.918Z,1244
2022-08-03T13:43:40.230Z,1256
2022-08-03T13:44:41.250Z,1284
2022-08-03T13:45:42.868Z,1308
2022-08-03T13:46:42.086Z,1332
2022-08-03T13:47:42.908Z,1364
2022-08-03T13:48:43.674Z,1408
2022-08-03T13:49:54.094Z,1500
2022-08-03T13:50:45.918Z,2224
2022-08-03T13:51:46.713Z,5388
2022-08-03T13:52:48.493Z,8336
2022-08-03T13:53:49.942Z,9408
2022-08-03T13:54:50.628Z,9448
2022-08-03T13:55:51.443Z,9024
2022-08-03T13:56:52.255Z,8620
2022-08-03T13:58:12.071Z,8588
2022-08-03T13:58:54.209Z,9172
2022-08-03T14:00:28.097Z,9372
2022-08-03T14:01:54.429Z,9376
2022-08-03T14:02:26.989Z,9332
2022-08-03T14:03:28.498Z,9188
2022-08-03T14:04:29.237Z,9444
2022-08-03T14:05:29.944Z,9728
2022-08-03T14:06:30.820Z,9856
2022-08-03T14:07:31.620Z,10536
2022-08-03T14:08:32.417Z,10972
2022-08-03T14:09:33.128Z,11240
2022-08-03T14:10:33.861Z,11224
2022-08-03T14:12:08.318Z,11220
2022-08-03T14:12:35.487Z,11008
2022-08-03T14:13:36.995Z,10588
2022-08-03T14:14:37.682Z,10400
2022-08-03T14:15:38.809Z,10240
2022-08-03T14:16:39.269Z,10272
2022-08-03T14:17:42.405Z,10700
2022-08-03T14:18:41.483Z,10756
2022-08-03T14:19:53.678Z,11196
2022-08-03T14:20:50.259Z,11796
2022-08-03T14:21:44.397Z,11804
2022-08-03T14:22:45.183Z,11720
2022-08-03T14:23:46.486Z,11784
2022-08-03T14:24:47.201Z,12184
2022-08-03T14:25:52.559Z,11936
2022-08-03T14:26:48.761Z,10936